createdAt,value
2023-04-23T00:05:47.559Z,58.35
2023-04-23T00:08:21.755Z,53.25
2023-04-23T00:10:53.093Z,55.97
2023-04-23T00:15:53.643Z,53.40
2023-04-23T00:18:24.009Z,53.45
2023-04-23T00:20:54.552Z,54.13
2023-04-23T00:23:25.012Z,52.03
2023-04-23T00:25:55.327Z,52.20
2023-04-23T00:28:25.674Z,50.93
2023-04-23T00:30:55.990Z,52.60
2023-04-23T00:33:26.212Z,51.92
2023-04-23T00:35:56.526Z,51.17
2023-04-23T00:38:28.749Z,51.37
2023-04-23T00:40:59.106Z,49.85
2023-04-23T00:43:29.455Z,49.22
2023-04-23T00:45:59.864Z,50.23
2023-04-23T00:48:31.652Z,50.10
2023-04-23T00:51:06.012Z,49.97
2023-04-23T00:53:36.908Z,51.78
2023-04-23T00:56:08.569Z,57.28
2023-04-23T00:58:40.533Z,61.45
2023-04-23T01:01:11.138Z,63.03
2023-04-23T01:03:44.742Z,59.05
2023-04-23T01:06:15.544Z,57.35
2023-04-23T01:08:47.698Z,52.47
2023-04-23T01:11:19.570Z,52.25
2023-04-23T01:13:50.029Z,49.20
2023-04-23T01:16:20.989Z,52.50
2023-04-23T03:18:52.386Z,42.60
2023-04-23T03:21:22.939Z,36.35
2023-04-23T03:23:53.379Z,40.47
2023-04-23T03:26:23.471Z,37.38
2023-04-23T03:28:54.422Z,35.80
2023-04-23T03:31:24.897Z,36.77
2023-04-23T03:36:33.129Z,36.45
2023-04-23T03:41:48.369Z,35.15
2023-04-23T03:44:21.976Z,36.85
2023-04-23T03:46:54.711Z,37.42
2023-04-23T03:49:25.460Z,35.53
2023-04-23T03:51:55.822Z,36.38
2023-04-23T03:54:28.288Z,37.13
2023-04-23T03:57:15.014Z,37.65
2023-04-23T04:00:24.023Z,35.17
2023-04-23T04:02:54.536Z,34.90
2023-04-23T04:05:27.563Z,36.20
2023-04-23T04:07:58.171Z,35.05
2023-04-23T04:10:29.186Z,35.40
2023-04-23T04:12:59.910Z,36.88
2023-04-23T04:15:30.924Z,35.67
2023-04-23T04:18:03.452Z,34.20
2023-04-23T04:20:33.738Z,35.55
2023-04-23T04:23:04.092Z,33.17
2023-04-23T04:25:34.602Z,34.73
2023-04-23T04:28:06.001Z,36.70
2023-04-23T04:30:36.896Z,37.58
2023-04-23T04:33:07.513Z,36.35
2023-04-23T04:35:38.155Z,36.40
2023-04-23T04:38:08.497Z,36.05
2023-04-23T04:40:38.790Z,36.37
2023-04-23T04:43:09.577Z,35.05
2023-04-23T04:45:39.950Z,33.85
2023-04-23T04:48:10.119Z,39.47
2023-04-23T04:50:40.557Z,38.23
2023-04-23T13:47:22.529Z,345.35
2023-04-23T13:49:52.916Z,340.40
2023-04-23T13:52:23.423Z,352.63
2023-04-23T13:54:55.329Z,348.63
2023-04-23T13:57:26.332Z,335.60
2023-04-23T14:00:02.002Z,320.10
2023-04-23T14:02:35.617Z,343.83
2023-04-23T14:05:07.145Z,352.50
2023-04-23T14:07:38.330Z,346.27
2023-04-23T14:10:09.330Z,340.48
2023-04-23T14:12:41.419Z,344.77
2023-04-23T14:15:12.392Z,368.55
2023-04-23T14:17:45.287Z,352.42
2023-04-23T14:20:22.086Z,345.95
2023-04-23T14:22:57.784Z,371.45
2023-04-23T14:25:33.552Z,522.28
2023-04-23T14:28:13.888Z,609.38
2023-04-23T14:30:44.210Z,396.88
2023-04-23T14:33:14.499Z,403.25
2023-04-23T14:35:44.714Z,432.97
2023-04-23T14:38:15.186Z,392.65
2023-04-23T14:40:45.451Z,457.33
2023-04-23T14:43:16.271Z,376.20
2023-04-23T14:45:47.333Z,356.20
2023-04-23T14:48:17.726Z,360.98
2023-04-23T14:50:48.905Z,361.20
2023-04-23T14:53:19.648Z,341.83
2023-04-23T14:55:50.022Z,327.30
2023-04-23T14:58:20.292Z,338.20
2023-04-23T15:00:51.908Z,336.38
2023-04-23T15:03:22.584Z,352.08
2023-04-23T15:05:53.213Z,356.95
2023-04-23T15:08:23.715Z,360.33
2023-04-23T15:10:54.038Z,164.97
2023-04-23T15:13:59.852Z,481.77
2023-04-23T15:19:09.072Z,537.60
2023-04-23T15:21:39.561Z,620.88
2023-04-23T15:24:10.330Z,36.90
2023-04-23T15:26:42.503Z,40.65
2023-04-23T15:29:12.969Z,38.58
2023-04-23T15:31:43.966Z,36.47
2023-04-23T15:34:15.522Z,37.90
2023-04-23T15:36:45.697Z,38.17
2023-04-23T15:39:15.895Z,38.20
2023-04-23T15:41:46.446Z,36.85
2023-04-23T15:44:17.291Z,45.35
2023-04-23T15:46:47.826Z,39.30
2023-04-23T15:49:18.232Z,37.10
2023-04-23T15:51:48.736Z,36.87
2023-04-23T15:54:18.987Z,36.57
2023-04-23T15:56:49.290Z,36.10
2023-04-23T15:59:19.582Z,38.30
2023-04-23T16:01:50.077Z,36.90
2023-04-23T16:04:20.645Z,35.80
2023-04-23T16:06:51.138Z,35.60
2023-04-23T16:09:21.503Z,36.38
2023-04-23T16:11:52.213Z,37.22
2023-04-23T16:14:22.623Z,34.57
2023-04-23T16:16:52.925Z,34.70
2023-04-23T16:19:23.746Z,33.87
2023-04-23T16:21:53.914Z,35.00
2023-04-23T16:24:25.561Z,33.97
2023-04-23T16:29:25.337Z,32.97
2023-04-23T16:31:55.784Z,33.60
2023-04-23T16:34:26.030Z,34.63
2023-04-23T16:36:56.373Z,34.28
2023-04-23T16:39:27.315Z,33.33
2023-04-23T16:41:57.551Z,34.33
2023-04-23T16:44:28.353Z,35.75
2023-04-23T16:46:59.253Z,33.35
2023-04-23T16:49:29.736Z,35.30
2023-04-23T16:52:21.065Z,33.87
2023-04-23T16:54:51.903Z,34.33
2023-04-23T16:57:22.241Z,35.63
2023-04-23T16:59:52.824Z,33.77
2023-04-23T17:02:24.834Z,35.63
2023-04-23T17:04:55.279Z,36.22
2023-04-23T17:07:26.001Z,34.90
2023-04-23T17:09:56.286Z,34.90
2023-04-23T17:12:26.683Z,34.60
2023-04-23T17:14:56.809Z,34.88
2023-04-23T17:17:27.252Z,34.92
2023-04-23T17:19:57.998Z,34.83
2023-04-23T17:22:28.513Z,35.17
2023-04-23T17:25:00.025Z,33.85
2023-04-23T17:27:30.328Z,36.10
2023-04-23T17:30:00.781Z,35.23
2023-04-23T17:32:30.998Z,34.28
2023-04-23T17:35:09.514Z,33.63
2023-04-23T17:37:40.666Z,34.70
2023-04-23T17:40:12.175Z,34.00
2023-04-23T17:45:13.971Z,33.72
2023-04-23T17:47:44.405Z,34.00
2023-04-23T17:50:15.071Z,34.05
2023-04-23T17:52:46.666Z,33.57
2023-04-23T17:55:17.755Z,34.22
2023-04-23T17:57:48.331Z,33.53
2023-04-23T22:55:47.091Z,38.50
2023-04-23T22:58:17.940Z,36.25
2023-04-23T23:00:48.521Z,37.65
2023-04-23T23:03:19.080Z,34.97
2023-04-23T23:05:49.758Z,35.97
2023-04-23T23:08:20.906Z,34.28
2023-04-23T23:10:51.470Z,36.47
2023-04-23T23:13:21.768Z,36.30
2023-04-23T23:15:52.134Z,33.60
2023-04-23T23:18:22.585Z,34.77
2023-04-23T23:20:53.324Z,33.72
2023-04-23T23:23:23.805Z,33.83
2023-04-23T23:25:54.069Z,32.77
2023-04-23T23:28:24.625Z,34.20
2023-04-23T23:30:56.019Z,34.23
2023-04-23T23:33:26.884Z,32.47
2023-04-23T23:35:57.676Z,31.52
2023-04-23T23:38:28.047Z,33.97
2023-04-23T23:40:58.113Z,34.80
2023-04-23T23:43:28.812Z,34.40
2023-04-23T23:45:59.079Z,33.97
2023-04-23T23:48:29.669Z,33.70
2023-04-23T23:50:59.871Z,34.97
2023-04-23T23:53:30.179Z,33.55
2023-04-23T23:56:00.964Z,33.35
2023-04-23T23:58:31.796Z,33.92
